Time;durP1;ratioP1;P1;durP2;ratioP2;P2;SDS_P1;SDS_P2;PMS_P1;PMS_P2;Temp;Humidity;BMP_temperature;BMP_pressure;BME280_temperature;BME280_humidity;BME280_pressure;Samples;Min_cycle;Max_cycle;Signal;HPM_P1;HPM_P2
2021/12/16 00:01:50;;;;;;;;;;;;;;;0.73;100.00;101800.72;5594932;31;34484;-83
2021/12/16 00:08:01;;;;;;;;;;;;;;;0.45;100.00;101813.59;5596517;31;34193;-83
2021/12/16 00:11:18;;;;;;;;;;;;;;;0.33;100.00;101808.69;5597399;31;33622;-83
2021/12/16 00:31:29;;;;;;;;;;;;;;;-0.35;100.00;101824.13;5596695;31;33342;-83
2021/12/16 00:34:33;;;;;;;;;;;;;;;-0.47;100.00;101822.66;5596562;31;34229;-83
2021/12/16 00:37:38;;;;;;;;;;;;;;;-0.51;100.00;101821.84;5597240;31;33842;-83
2021/12/16 00:40:42;;;;;;;;;;;;;;;-0.58;100.00;101829.81;5598027;31;34298;-83
2021/12/16 00:43:56;;;;;;;;;;;;;;;-0.65;100.00;101835.16;5596451;31;33397;-83
2021/12/16 00:54:05;;;;;;;;;;;;;;;-0.78;100.00;101825.88;5597246;31;33775;-83
2021/12/16 00:57:09;;;;;;;;;;;;;;;-0.87;100.00;101818.28;5597196;31;32648;-83
2021/12/16 01:00:15;;;;;;;;;;;;;;;-0.95;100.00;101816.66;5597462;31;34328;-83
2021/12/16 01:03:28;;;;;;;;;;;;;;;-0.94;100.00;101818.38;5600930;31;33746;-83
2021/12/16 01:33:53;;;;;;;;;;;;;;;-1.01;100.00;101811.59;5596321;31;33816;-82
2021/12/16 01:37:26;;;;;;;;;;;;;;;-1.04;100.00;101806.44;5597993;31;34121;-82
2021/12/16 01:40:57;;;;;;;;;;;;;;;-1.09;100.00;101803.09;5597774;31;34196;-82
2021/12/16 01:47:40;;;;;;;;;;;;;;;-1.24;100.00;101804.25;5596323;31;33612;-82
2021/12/16 01:50:51;;;;;;;;;;;;;;;-1.30;100.00;101800.03;5596007;31;33532;-82
2021/12/16 01:58:11;;;;;;;;;;;;;;;-1.40;100.00;101791.53;5596312;31;33767;-82
2021/12/16 02:01:10;;;;;;;;;;;;;;;-1.47;100.00;101791.66;5587622;31;33625;-82
2021/12/16 02:04:26;;;;;;;;;;;;;;;-1.50;100.00;101776.13;5596929;31;33572;-82
2021/12/16 02:11:01;;;;;;;;;;;;;;;-1.58;100.00;101778.91;5596004;31;34038;-82
2021/12/16 02:37:00;;;;;;;;;;;;;;;-1.61;100.00;101779.78;5595967;31;33752;-83
2021/12/16 02:40:05;;;;;;;;;;;;;;;-1.59;100.00;101779.78;5595593;31;33676;-83
2021/12/16 02:49:13;;;;;;;;;;;;;;;-1.57;100.00;101778.84;5595488;31;34871;-83
2021/12/16 02:52:20;;;;;;;;;;;;;;;-1.71;100.00;101773.91;5595763;31;33656;-83
2021/12/16 02:55:25;;;;;;;;;;;;;;;-1.78;100.00;101766.25;5595566;31;33370;-82
2021/12/16 02:58:28;;;;;;;;;;;;;;;-1.78;100.00;101759.31;5596873;31;34446;-82
2021/12/16 03:01:36;;;;;;;;;;;;;;;-1.65;100.00;101749.59;5595130;31;33120;-82
2021/12/16 03:04:40;;;;;;;;;;;;;;;-1.62;100.00;101749.50;5595263;31;33762;-82
2021/12/16 03:07:42;;;;;;;;;;;;;;;-1.60;100.00;101739.97;5595455;31;34355;-82
2021/12/16 03:17:23;;;;;;;;;;;;;;;-1.49;100.00;101738.91;5595521;31;33323;-82
2021/12/16 03:21:05;;;;;;;;;;;;;;;-1.49;100.00;101737.19;5597142;31;33449;-82
2021/12/16 03:37:17;;;;;;;;;;;;;;;-1.21;100.00;101748.78;5507886;31;33654;-83
2021/12/16 03:40:20;;;;;;;;;;;;;;;-1.22;100.00;101749.69;5596790;31;33536;-83
2021/12/16 03:43:23;;;;;;;;;;;;;;;-1.20;100.00;101742.72;5594590;31;33529;-83
2021/12/16 03:46:31;;;;;;;;;;;;;;;-1.12;100.00;101752.03;5595302;31;34192;-83
2021/12/16 03:49:34;;;;;;;;;;;;;;;-1.00;100.00;101750.97;5596637;31;33496;-82
2021/12/16 03:52:38;;;;;;;;;;;;;;;-0.96;100.00;101755.19;5595518;31;33384;-83
2021/12/16 03:55:41;;;;;;;;;;;;;;;-0.96;100.00;101744.78;5594819;31;33728;-83
2021/12/16 03:58:45;;;;;;;;;;;;;;;-0.93;100.00;101752.53;5594284;31;34163;-83
2021/12/16 04:01:53;;;;;;;;;;;;;;;-0.86;100.00;101757.62;5594978;31;33836;-83
2021/12/16 04:04:57;;;;;;;;;;;;;;;-0.77;100.00;101757.44;5594741;31;33335;-83
2021/12/16 04:08:04;;;;;;;;;;;;;;;-0.76;100.00;101748.75;5593915;31;33712;-83
2021/12/16 04:11:17;;;;;;;;;;;;;;;-0.78;100.00;101755.72;5594073;31;34109;-83
2021/12/16 04:14:23;;;;;;;;;;;;;;;-0.80;100.00;101747.09;5595674;31;33591;-83
2021/12/16 04:17:28;;;;;;;;;;;;;;;-0.76;100.00;101755.66;5595412;31;33200;-83
2021/12/16 04:20:30;;;;;;;;;;;;;;;-0.68;100.00;101751.19;5595057;31;33200;-83
2021/12/16 04:23:33;;;;;;;;;;;;;;;-0.63;100.00;101750.19;5595925;31;33871;-83
2021/12/16 04:26:37;;;;;;;;;;;;;;;-0.57;100.00;101758.72;5594205;31;33287;-83
2021/12/16 04:29:40;;;;;;;;;;;;;;;-0.52;100.00;101767.31;5594078;31;34330;-83
2021/12/16 04:32:42;;;;;;;;;;;;;;;-0.48;100.00;101764.59;5594283;31;33526;-83
2021/12/16 04:35:47;;;;;;;;;;;;;;;-0.44;100.00;101756.69;5582012;31;34297;-83
2021/12/16 04:38:50;;;;;;;;;;;;;;;-0.49;100.00;101768.09;5594195;31;33539;-83
2021/12/16 04:41:57;;;;;;;;;;;;;;;-0.56;100.00;101765.66;5594451;31;34057;-83
2021/12/16 04:44:59;;;;;;;;;;;;;;;-0.56;100.00;101761.28;5593795;31;33401;-83
2021/12/16 04:48:04;;;;;;;;;;;;;;;-0.56;100.00;101755.25;5593730;31;33911;-83
2021/12/16 04:51:07;;;;;;;;;;;;;;;-0.57;100.00;101754.41;5596997;31;33835;-83
2021/12/16 04:54:12;;;;;;;;;;;;;;;-0.51;100.00;101746.47;5596312;31;33830;-82
2021/12/16 04:57:18;;;;;;;;;;;;;;;-0.48;100.00;101742.94;5597637;31;33213;-82
2021/12/16 05:00:23;;;;;;;;;;;;;;;-0.53;100.00;101739.59;5597888;31;34073;-82
2021/12/16 05:03:27;;;;;;;;;;;;;;;-0.46;100.00;101730.75;5597849;31;33495;-82
2021/12/16 05:06:30;;;;;;;;;;;;;;;-0.43;100.00;101741.09;5597145;31;33678;-82
2021/12/16 05:12:42;;;;;;;;;;;;;;;-0.43;100.00;101741.09;5596976;31;33514;-83
2021/12/16 05:15:45;;;;;;;;;;;;;;;-0.36;100.00;101734.84;5596724;31;33786;-82
2021/12/16 05:18:52;;;;;;;;;;;;;;;-0.33;100.00;101747.78;5596858;31;34173;-83
2021/12/16 05:24:13;;;;;;;;;;;;;;;-0.25;100.00;101744.12;5597238;31;33163;-83
2021/12/16 05:25:30;;;;;;;;;;;;;;;-0.23;100.00;101748.44;5595651;31;33218;-83
2021/12/16 05:28:33;;;;;;;;;;;;;;;-0.21;100.00;101751.00;5596737;31;34054;-82
2021/12/16 05:31:39;;;;;;;;;;;;;;;-0.21;100.00;101751.84;5595832;31;33113;-82
2021/12/16 05:34:41;;;;;;;;;;;;;;;-0.14;100.00;101752.53;5596207;31;33222;-82
2021/12/16 05:37:45;;;;;;;;;;;;;;;-0.11;100.00;101765.50;5596422;31;34271;-83
2021/12/16 05:40:48;;;;;;;;;;;;;;;-0.09;100.00;101766.31;5596481;31;33114;-83
2021/12/16 05:43:54;;;;;;;;;;;;;;;-0.08;100.00;101768.03;5596289;31;33454;-83
2021/12/16 05:46:56;;;;;;;;;;;;;;;0.13;100.00;101771.00;5596271;31;34597;-83
2021/12/16 05:50:03;;;;;;;;;;;;;;;-0.03;100.00;101771.34;5596343;31;34091;-83
2021/12/16 05:53:05;;;;;;;;;;;;;;;-0.05;100.00;101774.91;5596020;31;33416;-83
2021/12/16 05:56:08;;;;;;;;;;;;;;;-0.11;100.00;101773.28;5595684;31;33914;-83
2021/12/16 05:59:13;;;;;;;;;;;;;;;-0.11;100.00;101778.50;5596910;31;34410;-82
2021/12/16 06:02:19;;;;;;;;;;;;;;;-0.07;100.00;101776.66;5596524;31;33476;-82
2021/12/16 06:05:22;;;;;;;;;;;;;;;-0.05;100.00;101780.94;5596602;31;34115;-82
2021/12/16 06:08:25;;;;;;;;;;;;;;;-0.01;100.00;101769.59;5595473;31;33679;-83
2021/12/16 06:11:31;;;;;;;;;;;;;;;0.01;100.00;101760.88;5595428;31;33014;-82
2021/12/16 06:27:48;;;;;;;;;;;;;;;0.00;100.00;101770.44;5594535;31;33588;-82
2021/12/16 06:30:53;;;;;;;;;;;;;;;-0.03;100.00;101770.50;5595729;31;33770;-82
2021/12/16 06:33:55;;;;;;;;;;;;;;;0.05;100.00;101772.94;5595242;31;33794;-82
2021/12/16 06:37:00;;;;;;;;;;;;;;;0.01;100.00;101777.34;5596791;31;33504;-82
2021/12/16 06:40:05;;;;;;;;;;;;;;;-0.01;100.00;101779.97;5597215;31;33348;-82
2021/12/16 06:43:15;;;;;;;;;;;;;;;0.00;100.00;101786.06;5595599;31;33078;-83
2021/12/16 06:46:20;;;;;;;;;;;;;;;0.01;100.00;101779.09;5595829;31;33825;-82
2021/12/16 06:49:28;;;;;;;;;;;;;;;0.09;100.00;101790.16;5595195;31;33805;-82
2021/12/16 06:52:42;;;;;;;;;;;;;;;0.06;100.00;101785.03;5593945;31;33708;-82
2021/12/16 06:55:54;;;;;;;;;;;;;;;0.14;100.00;101793.53;5594409;31;33804;-82
2021/12/16 06:59:11;;;;;;;;;;;;;;;0.23;100.00;101790.69;5594857;31;34556;-82
2021/12/16 07:02:30;;;;;;;;;;;;;;;0.43;100.00;101797.16;5595646;31;33768;-82
2021/12/16 07:05:35;;;;;;;;;;;;;;;0.52;100.00;101796.91;5597191;31;33480;-83
2021/12/16 07:08:38;;;;;;;;;;;;;;;0.50;100.00;101801.31;5596003;31;34630;-82
2021/12/16 07:11:42;;;;;;;;;;;;;;;0.48;100.00;101803.09;5595350;31;33824;-82
2021/12/16 07:14:45;;;;;;;;;;;;;;;0.56;100.00;101801.16;5594718;31;33527;-82
2021/12/16 07:17:51;;;;;;;;;;;;;;;0.63;100.00;101796.63;5595161;31;33197;-82
2021/12/16 07:20:54;;;;;;;;;;;;;;;0.61;100.00;101791.47;5595257;31;34318;-82
2021/12/16 07:23:56;;;;;;;;;;;;;;;0.66;100.00;101788.75;5594854;31;33804;-83
2021/12/16 07:27:00;;;;;;;;;;;;;;;0.67;100.00;101798.28;5596026;31;33594;-82
2021/12/16 07:30:12;;;;;;;;;;;;;;;0.66;100.00;101795.69;5596618;31;33665;-83
2021/12/16 07:33:21;;;;;;;;;;;;;;;0.71;100.00;101799.03;5596251;31;34207;-83
2021/12/16 07:36:24;;;;;;;;;;;;;;;0.52;100.00;101794.28;5597318;31;33327;-82
2021/12/16 07:39:37;;;;;;;;;;;;;;;0.44;100.00;101791.03;5596068;31;33369;-82
2021/12/16 07:43:54;;;;;;;;;;;;;;;0.40;100.00;101797.22;5595875;31;33490;-82
2021/12/16 07:46:13;;;;;;;;;;;;;;;0.37;100.00;101789.50;5583327;31;33494;-83
2021/12/16 07:49:18;;;;;;;;;;;;;;;0.42;100.00;101795.44;5597758;31;33851;-83
2021/12/16 07:52:21;;;;;;;;;;;;;;;0.34;100.00;101786.97;5594784;31;33169;-82
2021/12/16 07:55:26;;;;;;;;;;;;;;;0.33;100.00;101793.06;5594663;31;34522;-82
2021/12/16 07:58:29;;;;;;;;;;;;;;;0.39;100.00;101783.34;5595044;31;33770;-82
2021/12/16 08:01:35;;;;;;;;;;;;;;;0.44;100.00;101788.44;5594747;31;33698;-82
2021/12/16 08:04:44;;;;;;;;;;;;;;;0.46;100.00;101789.25;5594562;31;33434;-82
2021/12/16 08:07:46;;;;;;;;;;;;;;;0.43;100.00;101791.94;5594604;31;33520;-83
2021/12/16 08:10:50;;;;;;;;;;;;;;;0.41;100.00;101785.91;5594215;31;33302;-82
2021/12/16 08:13:52;;;;;;;;;;;;;;;0.33;100.00;101798.28;5596279;31;34153;-83
2021/12/16 08:16:56;;;;;;;;;;;;;;;0.34;100.00;101794.78;5594895;31;33951;-82
2021/12/16 08:19:59;;;;;;;;;;;;;;;0.39;100.00;101798.12;5594910;31;33193;-82
2021/12/16 08:23:24;;;;;;;;;;;;;;;0.35;100.00;101797.34;5593985;31;33772;-82
2021/12/16 08:26:28;;;;;;;;;;;;;;;0.38;100.00;101788.63;5596758;31;33817;-83
2021/12/16 08:29:31;;;;;;;;;;;;;;;0.47;100.00;101790.97;5596807;31;33635;-83
2021/12/16 08:32:34;;;;;;;;;;;;;;;0.46;100.00;101794.47;5596950;31;34489;-82
2021/12/16 08:35:41;;;;;;;;;;;;;;;0.52;100.00;101793.47;5631814;26;34344;-82
2021/12/16 08:38:44;;;;;;;;;;;;;;;0.67;100.00;101792.19;5619969;26;33252;-82
2021/12/16 08:41:49;;;;;;;;;;;;;;;0.70;100.00;101787.75;5627104;26;33013;-82
2021/12/16 08:44:51;;;;;;;;;;;;;;;1.01;100.00;101792.16;5602869;31;33446;-83
2021/12/16 08:47:55;;;;;;;;;;;;;;;1.08;100.00;101798.88;5615958;31;34250;-82
2021/12/16 08:51:00;;;;;;;;;;;;;;;1.21;100.00;101791.56;5617680;31;34916;-83
2021/12/16 08:54:03;;;;;;;;;;;;;;;1.32;100.00;101790.41;5617285;31;34424;-82
2021/12/16 08:57:05;;;;;;;;;;;;;;;1.80;100.00;101783.75;5616784;31;34459;-82
2021/12/16 09:00:19;;;;;;;;;;;;;;;2.16;100.00;101778.25;5616999;31;33657;-82
2021/12/16 09:03:22;;;;;;;;;;;;;;;2.30;100.00;101785.63;5616388;31;33830;-82
2021/12/16 09:06:25;;;;;;;;;;;;;;;2.66;100.00;101780.03;5603298;31;33421;-83
2021/12/16 09:09:32;;;;;;;;;;;;;;;2.80;100.00;101783.94;5616110;31;33408;-82
2021/12/16 09:12:53;;;;;;;;;;;;;;;2.83;100.00;101781.22;5605101;31;33989;-82
2021/12/16 09:15:57;;;;;;;;;;;;;;;3.04;100.00;101771.75;5601692;31;33825;-82
2021/12/16 09:19:02;;;;;;;;;;;;;;;3.23;100.00;101769.28;5596227;31;33286;-83
2021/12/16 09:22:05;;;;;;;;;;;;;;;3.12;100.00;101764.47;5596370;31;34853;-83
2021/12/16 09:25:10;;;;;;;;;;;;;;;3.01;100.00;101772.69;5596220;31;33587;-82
2021/12/16 09:28:17;;;;;;;;;;;;;;;2.81;100.00;101772.56;5595919;31;33738;-82
2021/12/16 09:31:22;;;;;;;;;;;;;;;2.70;100.00;101775.56;5596143;31;33904;-82
2021/12/16 09:34:24;;;;;;;;;;;;;;;2.96;100.00;101772.03;5594472;31;33381;-82
2021/12/16 09:37:35;;;;;;;;;;;;;;;3.13;100.00;101770.53;5595187;31;33839;-82
2021/12/16 09:40:44;;;;;;;;;;;;;;;3.31;100.00;101777.72;5596292;31;33536;-83
2021/12/16 09:43:48;;;;;;;;;;;;;;;3.44;100.00;101779.84;5595458;31;33687;-83
2021/12/16 09:46:53;;;;;;;;;;;;;;;3.57;100.00;101770.59;5596751;31;33843;-83
2021/12/16 09:50:07;;;;;;;;;;;;;;;3.73;100.00;101770.03;5595933;31;34107;-82
2021/12/16 09:53:10;;;;;;;;;;;;;;;3.91;100.00;101776.28;5595935;31;33523;-83
2021/12/16 09:56:14;;;;;;;;;;;;;;;4.28;100.00;101766.91;5596064;31;34304;-83
2021/12/16 09:59:17;;;;;;;;;;;;;;;4.62;100.00;101765.47;5597177;31;33889;-83
2021/12/16 10:02:21;;;;;;;;;;;;;;;4.66;100.00;101767.03;5594839;31;33247;-84
2021/12/16 10:05:24;;;;;;;;;;;;;;;4.71;100.00;101766.84;5597082;31;33579;-83
2021/12/16 10:08:27;;;;;;;;;;;;;;;4.71;100.00;101764.22;5599025;31;34647;-83
2021/12/16 10:11:31;;;;;;;;;;;;;;;4.72;100.00;101760.69;5597743;31;33984;-83
2021/12/16 10:14:57;;;;;;;;;;;;;;;5.20;100.00;101759.41;5596660;31;33762;-83
2021/12/16 10:17:58;;;;;;;;;;;;;;;5.16;100.00;101755.19;5595607;31;33594;-83
2021/12/16 10:21:03;;;;;;;;;;;;;;;5.40;100.00;101752.37;5595236;31;33197;-84
2021/12/16 10:24:19;;;;;;;;;;;;;;;5.53;100.00;101753.50;5596728;31;33874;-83
2021/12/16 10:27:25;;;;;;;;;;;;;;;5.25;100.00;101740.81;5597258;31;34055;-84
2021/12/16 10:30:46;;;;;;;;;;;;;;;5.15;100.00;101734.28;5597011;31;33428;-84
2021/12/16 10:33:48;;;;;;;;;;;;;;;5.33;100.00;101735.22;5599096;31;33583;-85
2021/12/16 10:36:52;;;;;;;;;;;;;;;5.41;100.00;101733.06;5596246;31;33578;-83
2021/12/16 10:40:14;;;;;;;;;;;;;;;5.51;100.00;101734.34;5595689;31;33631;-83
2021/12/16 10:43:26;;;;;;;;;;;;;;;5.32;100.00;101733.50;5596247;31;34168;-83
2021/12/16 10:46:30;;;;;;;;;;;;;;;4.99;100.00;101736.78;5595881;31;34035;-83
2021/12/16 10:49:35;;;;;;;;;;;;;;;4.75;100.00;101729.09;5597161;31;33726;-83
2021/12/16 10:52:39;;;;;;;;;;;;;;;4.80;100.00;101716.59;5595528;31;33793;-84
2021/12/16 10:55:55;;;;;;;;;;;;;;;4.61;100.00;101722.69;5595422;31;33207;-84
2021/12/16 10:59:04;;;;;;;;;;;;;;;4.37;100.00;101724.59;5597590;31;34745;-84
2021/12/16 11:02:17;;;;;;;;;;;;;;;4.39;100.00;101732.41;5596824;31;33636;-84
2021/12/16 11:05:22;;;;;;;;;;;;;;;4.51;100.00;101734.50;5595734;31;33661;-84
2021/12/16 11:08:25;;;;;;;;;;;;;;;4.58;100.00;101728.03;5595678;31;33362;-83
2021/12/16 11:11:29;;;;;;;;;;;;;;;4.51;100.00;101726.62;5595716;31;34287;-82
2021/12/16 11:14:31;;;;;;;;;;;;;;;4.38;100.00;101721.06;5597421;31;34587;-83
2021/12/16 11:17:40;;;;;;;;;;;;;;;4.37;100.00;101726.38;5597270;31;33592;-82
2021/12/16 11:20:52;;;;;;;;;;;;;;;4.47;100.00;101719.81;5596796;31;33689;-83
2021/12/16 11:23:54;;;;;;;;;;;;;;;4.49;100.00;101717.97;5598871;31;33817;-83
2021/12/16 11:27:19;;;;;;;;;;;;;;;4.55;100.00;101715.09;5595088;31;33809;-83
2021/12/16 11:30:22;;;;;;;;;;;;;;;4.61;100.00;101711.34;5594899;31;33838;-83
2021/12/16 11:33:27;;;;;;;;;;;;;;;4.76;100.00;101700.16;5594997;31;33760;-84
2021/12/16 11:36:34;;;;;;;;;;;;;;;4.95;100.00;101710.69;5595721;31;33732;-82
2021/12/16 11:39:37;;;;;;;;;;;;;;;5.06;100.00;101710.19;5595113;31;33208;-83
2021/12/16 11:42:39;;;;;;;;;;;;;;;5.03;100.00;101707.72;5596797;31;33291;-83
2021/12/16 11:45:42;;;;;;;;;;;;;;;5.04;100.00;101703.31;5594742;31;33958;-83
2021/12/16 11:48:45;;;;;;;;;;;;;;;5.27;100.00;101691.75;5594337;31;33484;-83
2021/12/16 11:51:50;;;;;;;;;;;;;;;5.16;100.00;101697.47;5594736;31;33271;-83
2021/12/16 11:54:55;;;;;;;;;;;;;;;5.08;100.00;101686.50;5595375;31;33899;-83
2021/12/16 11:58:03;;;;;;;;;;;;;;;4.97;100.00;101691.41;5596956;31;33547;-83
2021/12/16 12:01:31;;;;;;;;;;;;;;;5.18;100.00;101673.81;5596874;31;33792;-83
2021/12/16 12:04:36;;;;;;;;;;;;;;;5.20;100.00;101672.81;5594839;31;33871;-83
2021/12/16 12:07:42;;;;;;;;;;;;;;;5.33;100.00;101672.22;5598157;31;35668;-83
2021/12/16 12:10:47;;;;;;;;;;;;;;;5.12;100.00;101679.34;5598154;31;33130;-83
2021/12/16 12:13:51;;;;;;;;;;;;;;;5.24;100.00;101678.75;5596618;31;33841;-83
2021/12/16 12:17:01;;;;;;;;;;;;;;;5.29;100.00;101689.03;5597155;31;33691;-83
2021/12/16 12:20:04;;;;;;;;;;;;;;;5.32;100.00;101681.03;5595794;31;33502;-83
2021/12/16 12:23:10;;;;;;;;;;;;;;;5.42;100.00;101682.28;5597436;31;33660;-83
2021/12/16 12:26:16;;;;;;;;;;;;;;;5.28;100.00;101676.84;5597161;31;33630;-83
2021/12/16 12:29:27;;;;;;;;;;;;;;;5.28;100.00;101679.47;5597705;31;33850;-84
2021/12/16 12:32:31;;;;;;;;;;;;;;;5.18;100.00;101669.41;5597333;31;34327;-83
2021/12/16 12:35:39;;;;;;;;;;;;;;;5.29;100.00;101675.91;5596655;31;33444;-83
2021/12/16 12:38:42;;;;;;;;;;;;;;;5.08;100.00;101673.38;5597595;31;34275;-83
2021/12/16 12:41:46;;;;;;;;;;;;;;;5.31;100.00;101679.31;5596904;31;33282;-83
2021/12/16 12:44:48;;;;;;;;;;;;;;;5.35;100.00;101673.84;5598015;31;33660;-83
2021/12/16 12:47:54;;;;;;;;;;;;;;;5.30;100.00;101678.47;5598233;31;34237;-83
2021/12/16 12:51:00;;;;;;;;;;;;;;;5.16;100.00;101673.87;5596311;31;33761;-83
2021/12/16 12:54:14;;;;;;;;;;;;;;;5.44;100.00;101671.69;5597042;31;33425;-83
2021/12/16 12:57:20;;;;;;;;;;;;;;;5.16;100.00;101667.78;5596443;31;33255;-83
2021/12/16 13:00:28;;;;;;;;;;;;;;;5.37;100.00;101673.78;5597315;31;34092;-83
2021/12/16 13:03:40;;;;;;;;;;;;;;;5.32;100.00;101666.12;5596434;31;32880;-83
2021/12/16 13:06:49;;;;;;;;;;;;;;;5.39;100.00;101682.44;5596880;31;34112;-83
2021/12/16 13:09:55;;;;;;;;;;;;;;;5.45;100.00;101674.28;5596371;31;33521;-83
2021/12/16 13:13:23;;;;;;;;;;;;;;;5.31;100.00;101681.94;5597062;31;33767;-83
2021/12/16 13:17:22;;;;;;;;;;;;;;;5.15;100.00;101689.69;5598913;31;33743;-83
2021/12/16 13:23:29;;;;;;;;;;;;;;;5.02;100.00;101684.16;5597893;31;33722;-82
2021/12/16 13:26:45;;;;;;;;;;;;;;;5.14;100.00;101694.06;5596565;31;33419;-82
2021/12/16 13:33:19;;;;;;;;;;;;;;;4.91;100.00;101693.38;5596243;31;33452;-82
2021/12/16 13:36:46;;;;;;;;;;;;;;;5.13;100.00;101686.28;5596537;31;33010;-82
2021/12/16 13:39:50;;;;;;;;;;;;;;;5.17;100.00;101695.72;5597733;31;33460;-83
2021/12/16 13:42:57;;;;;;;;;;;;;;;5.00;100.00;101691.25;5597541;31;33702;-85
2021/12/16 13:46:31;;;;;;;;;;;;;;;4.98;100.00;101693.09;5596669;31;33802;-84
2021/12/16 14:03:46;;;;;;;;;;;;;;;4.92;100.00;101700.31;5595858;31;34147;-85
2021/12/16 14:07:02;;;;;;;;;;;;;;;4.88;100.00;101704.03;5596076;31;33773;-85
2021/12/16 14:10:15;;;;;;;;;;;;;;;4.86;100.00;101699.75;5595312;31;33536;-85
2021/12/16 14:23:25;;;;;;;;;;;;;;;4.76;100.00;101704.56;5594382;31;33639;-84
2021/12/16 14:38:02;;;;;;;;;;;;;;;4.61;100.00;101693.84;5595829;31;34352;-82
2021/12/16 14:41:04;;;;;;;;;;;;;;;4.54;100.00;101700.28;5594578;31;33285;-84
2021/12/16 14:50:33;;;;;;;;;;;;;;;4.45;100.00;101701.53;5595943;31;34134;-83
2021/12/16 14:53:43;;;;;;;;;;;;;;;4.50;100.00;101709.19;5595866;31;33734;-83
2021/12/16 14:56:49;;;;;;;;;;;;;;;4.39;100.00;101706.19;5595382;31;33463;-83
2021/12/16 14:59:54;;;;;;;;;;;;;;;4.55;100.00;101704.63;5595478;31;33822;-83
2021/12/16 15:03:11;;;;;;;;;;;;;;;4.56;100.00;101698.44;5597193;31;33692;-83
2021/12/16 15:06:30;;;;;;;;;;;;;;;4.61;100.00;101693.00;5596028;31;34545;-82
2021/12/16 15:09:37;;;;;;;;;;;;;;;4.62;100.00;101698.16;5596703;31;33851;-82
2021/12/16 15:12:49;;;;;;;;;;;;;;;4.66;100.00;101695.41;5596199;31;34580;-84
2021/12/16 15:31:56;;;;;;;;;;;;;;;4.49;100.00;101691.75;5595195;31;34166;-83
2021/12/16 15:42:56;;;;;;;;;;;;;;;4.41;100.00;101693.88;5599984;31;34160;-83
2021/12/16 15:46:00;;;;;;;;;;;;;;;4.45;100.00;101695.44;5598515;31;33753;-82
2021/12/16 15:49:04;;;;;;;;;;;;;;;4.29;100.00;101690.87;5596625;31;34413;-82
2021/12/16 15:52:07;;;;;;;;;;;;;;;4.28;100.00;101697.03;5595568;31;33332;-82
2021/12/16 15:55:15;;;;;;;;;;;;;;;4.22;100.00;101694.69;5595207;31;33414;-82
2021/12/16 15:58:22;;;;;;;;;;;;;;;4.29;100.00;101701.34;5595096;31;33569;-83
2021/12/16 16:01:30;;;;;;;;;;;;;;;4.38;100.00;101696.62;5566281;26;33699;-82
2021/12/16 16:04:35;;;;;;;;;;;;;;;4.35;100.00;101699.38;5624900;26;34300;-83
2021/12/16 16:07:42;;;;;;;;;;;;;;;4.36;100.00;101701.94;5615934;31;33516;-83
2021/12/16 16:10:47;;;;;;;;;;;;;;;4.37;100.00;101708.03;5616949;31;33708;-83
2021/12/16 16:13:53;;;;;;;;;;;;;;;4.36;100.00;101706.31;5615055;31;34008;-83
2021/12/16 16:16:58;;;;;;;;;;;;;;;4.39;100.00;101701.78;5614714;31;33965;-83
2021/12/16 16:20:02;;;;;;;;;;;;;;;4.42;100.00;101706.06;5607996;31;33594;-83
2021/12/16 16:23:08;;;;;;;;;;;;;;;4.36;100.00;101701.06;5595448;31;33734;-83
2021/12/16 16:26:12;;;;;;;;;;;;;;;4.33;100.00;101697.66;5596218;31;33732;-82
2021/12/16 16:29:17;;;;;;;;;;;;;;;4.25;100.00;101699.78;5595075;31;33925;-83
2021/12/16 16:32:19;;;;;;;;;;;;;;;4.37;100.00;101698.41;5594396;31;34384;-83
2021/12/16 16:35:22;;;;;;;;;;;;;;;4.50;100.00;101698.72;5593770;31;33571;-83
2021/12/16 16:38:27;;;;;;;;;;;;;;;4.55;100.00;101701.13;5594447;31;33155;-83
2021/12/16 16:41:37;;;;;;;;;;;;;;;4.48;100.00;101696.16;5584046;31;33538;-84
2021/12/16 16:44:44;;;;;;;;;;;;;;;4.53;100.00;101706.44;5595215;31;33773;-83
2021/12/16 16:47:53;;;;;;;;;;;;;;;4.42;100.00;101706.06;5599641;31;34101;-83
2021/12/16 16:51:03;;;;;;;;;;;;;;;4.57;100.00;101705.38;5598536;31;34290;-83
2021/12/16 16:54:12;;;;;;;;;;;;;;;4.68;100.00;101707.53;5597610;31;34053;-82
2021/12/16 16:57:19;;;;;;;;;;;;;;;4.71;100.00;101690.81;5596605;31;33594;-83
2021/12/16 17:00:28;;;;;;;;;;;;;;;4.76;100.00;101694.09;5598069;31;33323;-83
2021/12/16 17:03:31;;;;;;;;;;;;;;;4.61;100.00;101695.63;5597168;31;34483;-84
2021/12/16 17:06:33;;;;;;;;;;;;;;;4.75;100.00;101702.88;5597310;31;33318;-83
2021/12/16 17:09:37;;;;;;;;;;;;;;;4.79;100.00;101704.41;5597811;31;33930;-83
2021/12/16 17:12:42;;;;;;;;;;;;;;;4.78;100.00;101714.06;5597255;31;33072;-85
2021/12/16 17:18:59;;;;;;;;;;;;;;;4.72;100.00;101716.09;5599340;31;34140;-84
2021/12/16 17:22:14;;;;;;;;;;;;;;;4.77;100.00;101695.78;5597521;31;33745;-84
2021/12/16 17:25:18;;;;;;;;;;;;;;;4.83;100.00;101706.00;5597793;31;33396;-83
2021/12/16 17:28:23;;;;;;;;;;;;;;;4.72;100.00;101713.47;5596618;31;33934;-83
2021/12/16 17:31:33;;;;;;;;;;;;;;;4.45;100.00;101695.44;5596184;31;34342;-83
2021/12/16 17:34:42;;;;;;;;;;;;;;;4.37;100.00;101698.41;5596761;31;33071;-82
2021/12/16 17:37:47;;;;;;;;;;;;;;;4.42;100.00;101706.06;5598121;31;33695;-83
2021/12/16 17:40:52;;;;;;;;;;;;;;;4.49;100.00;101697.00;5599357;31;33730;-83
2021/12/16 17:43:57;;;;;;;;;;;;;;;4.55;100.00;101720.34;5596157;31;34168;-83
2021/12/16 17:47:07;;;;;;;;;;;;;;;4.63;100.00;101735.72;5597650;31;33681;-82
2021/12/16 17:50:13;;;;;;;;;;;;;;;4.48;100.00;101729.38;5598856;31;33819;-83
2021/12/16 17:53:20;;;;;;;;;;;;;;;4.32;100.00;101710.84;5595825;31;33613;-83
2021/12/16 17:56:26;;;;;;;;;;;;;;;4.21;100.00;101719.19;5596721;31;33785;-83
2021/12/16 17:59:30;;;;;;;;;;;;;;;4.09;100.00;101711.84;5596553;31;33618;-83
2021/12/16 18:02:33;;;;;;;;;;;;;;;4.19;100.00;101721.00;5595755;31;34316;-83
2021/12/16 18:05:47;;;;;;;;;;;;;;;4.20;100.00;101699.13;5595859;31;33190;-83
2021/12/16 18:08:58;;;;;;;;;;;;;;;4.20;100.00;101706.12;5595593;31;34697;-83
2021/12/16 18:12:07;;;;;;;;;;;;;;;4.25;100.00;101696.31;5596397;31;32214;-83
2021/12/16 18:15:13;;;;;;;;;;;;;;;4.11;100.00;101692.50;5595825;31;33134;-83
2021/12/16 18:18:16;;;;;;;;;;;;;;;4.02;100.00;101683.25;5595186;31;33837;-83
2021/12/16 18:21:20;;;;;;;;;;;;;;;4.00;100.00;101674.63;5595979;31;34043;-83
2021/12/16 18:24:34;;;;;;;;;;;;;;;3.76;100.00;101680.91;5596116;31;33965;-83
2021/12/16 18:27:41;;;;;;;;;;;;;;;3.64;100.00;101685.72;5596210;31;33406;-83
2021/12/16 18:30:53;;;;;;;;;;;;;;;3.61;100.00;101687.59;5596260;31;33311;-83
2021/12/16 18:33:56;;;;;;;;;;;;;;;3.88;100.00;101696.09;5595771;31;33686;-83
2021/12/16 18:37:12;;;;;;;;;;;;;;;3.95;100.00;101694.94;5596682;31;33256;-83
2021/12/16 18:40:17;;;;;;;;;;;;;;;3.97;100.00;101693.09;5597928;31;34350;-83
2021/12/16 18:43:22;;;;;;;;;;;;;;;3.90;100.00;101699.50;5596640;31;33579;-83
2021/12/16 18:46:25;;;;;;;;;;;;;;;3.89;100.00;101703.00;5570246;31;816340;-83
2021/12/16 18:49:44;;;;;;;;;;;;;;;3.88;100.00;101698.72;5598314;31;33666;-83
2021/12/16 18:56:15;;;;;;;;;;;;;;;3.94;100.00;101690.59;5587239;31;33223;-82
2021/12/16 18:59:18;;;;;;;;;;;;;;;3.86;100.00;101682.22;5596376;31;34244;-82
2021/12/16 19:02:24;;;;;;;;;;;;;;;3.99;100.00;101693.91;5597186;31;34745;-84
2021/12/16 19:05:27;;;;;;;;;;;;;;;3.90;100.00;101691.63;5595372;31;33288;-82
2021/12/16 19:08:29;;;;;;;;;;;;;;;3.97;100.00;101681.75;5594620;31;33662;-82
2021/12/16 19:11:39;;;;;;;;;;;;;;;3.95;100.00;101694.94;5595476;31;33833;-82
2021/12/16 19:14:54;;;;;;;;;;;;;;;3.91;100.00;101702.97;5596952;31;33741;-82
2021/12/16 19:17:57;;;;;;;;;;;;;;;3.95;100.00;101699.28;5595822;31;33413;-82
2021/12/16 19:21:07;;;;;;;;;;;;;;;4.01;100.00;101696.44;5595305;31;33426;-83
2021/12/16 19:24:10;;;;;;;;;;;;;;;3.92;100.00;101702.06;5595723;31;33947;-83
2021/12/16 19:27:24;;;;;;;;;;;;;;;3.93;100.00;101698.53;5596048;31;34205;-82